sensor_id;sensor_type;location;lat;lon;timestamp;temperature;humidity
25718;DHT22;13574;52.040;5.692;2023-06-26T00:00:41;29.60;84.50
25718;DHT22;13574;52.040;5.692;2023-06-26T00:03:07;29.60;84.30
25718;DHT22;13574;52.040;5.692;2023-06-26T00:05:33;29.60;84.70
25718;DHT22;13574;52.040;5.692;2023-06-26T00:07:59;29.50;84.60
25718;DHT22;13574;52.040;5.692;2023-06-26T00:10:26;29.40;84.60
25718;DHT22;13574;52.040;5.692;2023-06-26T00:12:53;29.30;84.80
25718;DHT22;13574;52.040;5.692;2023-06-26T00:15:19;29.40;85.20
25718;DHT22;13574;52.040;5.692;2023-06-26T00:17:45;29.30;84.60
25718;DHT22;13574;52.040;5.692;2023-06-26T00:20:11;29.30;85.10
25718;DHT22;13574;52.040;5.692;2023-06-26T00:22:36;29.30;85.30
25718;DHT22;13574;52.040;5.692;2023-06-26T00:25:06;29.30;85.10
25718;DHT22;13574;52.040;5.692;2023-06-26T00:27:32;29.30;85.40
25718;DHT22;13574;52.040;5.692;2023-06-26T00:29:57;29.20;85.50
25718;DHT22;13574;52.040;5.692;2023-06-26T00:32:23;29.20;85.60
25718;DHT22;13574;52.040;5.692;2023-06-26T00:34:49;29.20;85.30
25718;DHT22;13574;52.040;5.692;2023-06-26T00:37:14;29.20;85.80
25718;DHT22;13574;52.040;5.692;2023-06-26T00:39:40;29.20;85.90
25718;DHT22;13574;52.040;5.692;2023-06-26T00:42:06;29.20;86.00
25718;DHT22;13574;52.040;5.692;2023-06-26T00:44:32;29.20;86.10
25718;DHT22;13574;52.040;5.692;2023-06-26T00:46:58;29.10;85.70
25718;DHT22;13574;52.040;5.692;2023-06-26T00:49:24;29.00;86.00
25718;DHT22;13574;52.040;5.692;2023-06-26T00:51:51;29.10;86.30
25718;DHT22;13574;52.040;5.692;2023-06-26T00:54:17;29.00;87.30
25718;DHT22;13574;52.040;5.692;2023-06-26T00:56:46;29.00;86.50
25718;DHT22;13574;52.040;5.692;2023-06-26T00:59:13;29.00;86.50
25718;DHT22;13574;52.040;5.692;2023-06-26T01:01:39;29.10;86.40
25718;DHT22;13574;52.040;5.692;2023-06-26T01:04:04;29.10;86.70
25718;DHT22;13574;52.040;5.692;2023-06-26T01:06:32;29.00;87.00
25718;DHT22;13574;52.040;5.692;2023-06-26T01:09:01;29.00;87.20
25718;DHT22;13574;52.040;5.692;2023-06-26T01:11:27;29.00;87.40
25718;DHT22;13574;52.040;5.692;2023-06-26T01:13:54;29.00;87.40
25718;DHT22;13574;52.040;5.692;2023-06-26T01:16:21;28.90;87.60
25718;DHT22;13574;52.040;5.692;2023-06-26T01:18:49;28.90;87.80
25718;DHT22;13574;52.040;5.692;2023-06-26T01:21:15;28.90;87.60
25718;DHT22;13574;52.040;5.692;2023-06-26T01:24:05;28.90;87.80
25718;DHT22;13574;52.040;5.692;2023-06-26T01:26:35;28.80;88.00
25718;DHT22;13574;52.040;5.692;2023-06-26T01:29:02;28.70;88.20
25718;DHT22;13574;52.040;5.692;2023-06-26T01:31:29;28.60;88.50
25718;DHT22;13574;52.040;5.692;2023-06-26T01:33:58;28.70;88.50
25718;DHT22;13574;52.040;5.692;2023-06-26T01:36:24;28.70;88.30
25718;DHT22;13574;52.040;5.692;2023-06-26T01:38:50;28.70;88.10
25718;DHT22;13574;52.040;5.692;2023-06-26T01:41:17;28.50;88.20
25718;DHT22;13574;52.040;5.692;2023-06-26T01:46:40;28.30;88.00
25718;DHT22;13574;52.040;5.692;2023-06-26T01:49:15;28.20;88.40
25718;DHT22;13574;52.040;5.692;2023-06-26T01:52:06;27.90;88.30
25718;DHT22;13574;52.040;5.692;2023-06-26T01:54:37;27.80;88.60
25718;DHT22;13574;52.040;5.692;2023-06-26T01:57:05;27.70;88.70
25718;DHT22;13574;52.040;5.692;2023-06-26T01:59:33;27.60;88.80
25718;DHT22;13574;52.040;5.692;2023-06-26T02:02:01;27.60;88.70
25718;DHT22;13574;52.040;5.692;2023-06-26T02:04:26;27.50;89.10
25718;DHT22;13574;52.040;5.692;2023-06-26T02:06:52;27.50;89.30
25718;DHT22;13574;52.040;5.692;2023-06-26T02:09:18;27.30;90.10
25718;DHT22;13574;52.040;5.692;2023-06-26T02:11:44;27.50;89.30
25718;DHT22;13574;52.040;5.692;2023-06-26T02:14:10;27.30;89.70
25718;DHT22;13574;52.040;5.692;2023-06-26T02:16:36;27.40;89.70
25718;DHT22;13574;52.040;5.692;2023-06-26T02:19:02;27.60;89.40
25718;DHT22;13574;52.040;5.692;2023-06-26T02:21:27;27.70;89.20
25718;DHT22;13574;52.040;5.692;2023-06-26T02:23:53;27.70;89.20
25718;DHT22;13574;52.040;5.692;2023-06-26T02:26:18;27.60;89.20
25718;DHT22;13574;52.040;5.692;2023-06-26T02:28:44;27.70;89.20
25718;DHT22;13574;52.040;5.692;2023-06-26T02:31:10;27.60;89.60
25718;DHT22;13574;52.040;5.692;2023-06-26T02:33:35;27.40;90.00
25718;DHT22;13574;52.040;5.692;2023-06-26T02:36:01;27.50;89.80
25718;DHT22;13574;52.040;5.692;2023-06-26T02:38:27;27.50;89.90
25718;DHT22;13574;52.040;5.692;2023-06-26T02:40:52;27.50;90.00
25718;DHT22;13574;52.040;5.692;2023-06-26T02:43:18;27.40;90.00
25718;DHT22;13574;52.040;5.692;2023-06-26T02:45:44;27.20;90.20
25718;DHT22;13574;52.040;5.692;2023-06-26T02:48:09;27.30;90.20
25718;DHT22;13574;52.040;5.692;2023-06-26T02:50:35;27.40;90.20
25718;DHT22;13574;52.040;5.692;2023-06-26T02:53:00;27.20;90.20
25718;DHT22;13574;52.040;5.692;2023-06-26T02:55:27;27.40;90.20
25718;DHT22;13574;52.040;5.692;2023-06-26T02:57:53;27.30;90.20
25718;DHT22;13574;52.040;5.692;2023-06-26T03:00:18;27.20;90.20
25718;DHT22;13574;52.040;5.692;2023-06-26T03:02:44;27.20;90.40
25718;DHT22;13574;52.040;5.692;2023-06-26T03:05:10;27.20;90.50
25718;DHT22;13574;52.040;5.692;2023-06-26T03:07:35;27.10;90.60
25718;DHT22;13574;52.040;5.692;2023-06-26T03:10:01;27.00;90.70
25718;DHT22;13574;52.040;5.692;2023-06-26T03:12:26;27.00;90.90
25718;DHT22;13574;52.040;5.692;2023-06-26T03:14:52;26.90;91.00
25718;DHT22;13574;52.040;5.692;2023-06-26T03:17:18;26.80;91.20
25718;DHT22;13574;52.040;5.692;2023-06-26T03:19:43;27.00;91.50
25718;DHT22;13574;52.040;5.692;2023-06-26T03:22:10;27.00;91.20
25718;DHT22;13574;52.040;5.692;2023-06-26T03:24:36;27.00;91.30
25718;DHT22;13574;52.040;5.692;2023-06-26T03:27:01;26.90;91.30
25718;DHT22;13574;52.040;5.692;2023-06-26T03:29:27;26.70;91.40
25718;DHT22;13574;52.040;5.692;2023-06-26T03:31:53;26.60;91.70
25718;DHT22;13574;52.040;5.692;2023-06-26T03:34:19;26.70;91.80
25718;DHT22;13574;52.040;5.692;2023-06-26T03:36:45;26.60;91.70
25718;DHT22;13574;52.040;5.692;2023-06-26T03:39:11;26.70;91.90
25718;DHT22;13574;52.040;5.692;2023-06-26T03:41:36;26.70;91.90
25718;DHT22;13574;52.040;5.692;2023-06-26T03:44:02;26.60;92.00
25718;DHT22;13574;52.040;5.692;2023-06-26T03:46:29;26.50;92.10
25718;DHT22;13574;52.040;5.692;2023-06-26T03:48:54;26.50;92.10
25718;DHT22;13574;52.040;5.692;2023-06-26T03:51:20;26.70;92.00
25718;DHT22;13574;52.040;5.692;2023-06-26T03:53:45;26.70;92.20
25718;DHT22;13574;52.040;5.692;2023-06-26T03:56:11;26.60;92.30
25718;DHT22;13574;52.040;5.692;2023-06-26T03:58:37;26.40;92.50
25718;DHT22;13574;52.040;5.692;2023-06-26T04:01:02;26.40;92.60
25718;DHT22;13574;52.040;5.692;2023-06-26T04:03:28;26.60;92.50
25718;DHT22;13574;52.040;5.692;2023-06-26T04:05:54;26.70;92.50
25718;DHT22;13574;52.040;5.692;2023-06-26T04:08:20;26.80;92.40
25718;DHT22;13574;52.040;5.692;2023-06-26T04:10:46;26.70;92.50
25718;DHT22;13574;52.040;5.692;2023-06-26T04:13:14;26.80;92.40
25718;DHT22;13574;52.040;5.692;2023-06-26T04:15:39;26.80;92.40
25718;DHT22;13574;52.040;5.692;2023-06-26T04:18:05;26.70;92.70
25718;DHT22;13574;52.040;5.692;2023-06-26T04:20:31;26.70;92.60
25718;DHT22;13574;52.040;5.692;2023-06-26T04:22:56;26.80;92.60
25718;DHT22;13574;52.040;5.692;2023-06-26T04:25:22;26.60;92.80
25718;DHT22;13574;52.040;5.692;2023-06-26T04:27:48;26.60;92.90
25718;DHT22;13574;52.040;5.692;2023-06-26T04:30:13;26.50;93.00
25718;DHT22;13574;52.040;5.692;2023-06-26T04:32:39;26.50;93.10
25718;DHT22;13574;52.040;5.692;2023-06-26T04:35:05;26.40;93.10
25718;DHT22;13574;52.040;5.692;2023-06-26T04:37:31;26.40;93.10
25718;DHT22;13574;52.040;5.692;2023-06-26T04:39:56;26.40;93.30
25718;DHT22;13574;52.040;5.692;2023-06-26T04:42:22;26.60;93.10
25718;DHT22;13574;52.040;5.692;2023-06-26T04:44:48;26.60;93.00
25718;DHT22;13574;52.040;5.692;2023-06-26T04:47:13;26.50;93.00
25718;DHT22;13574;52.040;5.692;2023-06-26T04:49:41;26.60;93.10
25718;DHT22;13574;52.040;5.692;2023-06-26T04:52:14;26.60;93.10
25718;DHT22;13574;52.040;5.692;2023-06-26T04:54:40;26.60;93.00
25718;DHT22;13574;52.040;5.692;2023-06-26T04:57:05;26.70;93.10
25718;DHT22;13574;52.040;5.692;2023-06-26T04:59:31;26.80;92.90
25718;DHT22;13574;52.040;5.692;2023-06-26T05:01:57;26.80;93.10
25718;DHT22;13574;52.040;5.692;2023-06-26T05:04:23;26.90;92.60
25718;DHT22;13574;52.040;5.692;2023-06-26T05:06:48;27.00;92.60
25718;DHT22;13574;52.040;5.692;2023-06-26T05:09:14;27.10;92.50
25718;DHT22;13574;52.040;5.692;2023-06-26T05:11:42;27.00;92.40
25718;DHT22;13574;52.040;5.692;2023-06-26T05:14:08;26.90;92.10
25718;DHT22;13574;52.040;5.692;2023-06-26T05:16:34;26.80;92.30
25718;DHT22;13574;52.040;5.692;2023-06-26T05:19:00;26.90;92.30
25718;DHT22;13574;52.040;5.692;2023-06-26T05:21:27;26.70;92.00
25718;DHT22;13574;52.040;5.692;2023-06-26T05:23:56;26.90;92.20
25718;DHT22;13574;52.040;5.692;2023-06-26T05:26:22;27.10;91.90
25718;DHT22;13574;52.040;5.692;2023-06-26T05:28:48;27.10;91.30
25718;DHT22;13574;52.040;5.692;2023-06-26T05:31:15;27.10;91.20
25718;DHT22;13574;52.040;5.692;2023-06-26T05:33:43;26.90;91.30
25718;DHT22;13574;52.040;5.692;2023-06-26T05:36:09;27.10;91.10
25718;DHT22;13574;52.040;5.692;2023-06-26T05:38:36;27.30;91.00
25718;DHT22;13574;52.040;5.692;2023-06-26T05:41:02;27.50;90.70
25718;DHT22;13574;52.040;5.692;2023-06-26T05:43:28;27.70;90.50
25718;DHT22;13574;52.040;5.692;2023-06-26T05:45:54;27.80;90.20
25718;DHT22;13574;52.040;5.692;2023-06-26T05:48:19;27.90;89.50
25718;DHT22;13574;52.040;5.692;2023-06-26T05:50:45;27.80;89.60
25718;DHT22;13574;52.040;5.692;2023-06-26T05:53:11;27.60;89.20
25718;DHT22;13574;52.040;5.692;2023-06-26T05:55:37;27.40;89.00
25718;DHT22;13574;52.040;5.692;2023-06-26T05:58:03;27.40;89.60
25718;DHT22;13574;52.040;5.692;2023-06-26T06:00:29;27.50;89.70
25718;DHT22;13574;52.040;5.692;2023-06-26T06:02:55;27.70;89.30
25718;DHT22;13574;52.040;5.692;2023-06-26T06:05:23;27.80;89.30
25718;DHT22;13574;52.040;5.692;2023-06-26T06:07:49;27.90;87.90
25718;DHT22;13574;52.040;5.692;2023-06-26T06:10:15;28.00;87.80
25718;DHT22;13574;52.040;5.692;2023-06-26T06:12:41;28.50;87.70
25718;DHT22;13574;52.040;5.692;2023-06-26T06:15:07;29.00;85.60
25718;DHT22;13574;52.040;5.692;2023-06-26T06:17:33;29.60;84.10
25718;DHT22;13574;52.040;5.692;2023-06-26T06:19:58;29.90;82.80
25718;DHT22;13574;52.040;5.692;2023-06-26T06:22:24;29.70;82.90
25718;DHT22;13574;52.040;5.692;2023-06-26T06:24:50;29.60;82.80
25718;DHT22;13574;52.040;5.692;2023-06-26T06:27:16;29.30;83.70
25718;DHT22;13574;52.040;5.692;2023-06-26T06:29:42;29.10;83.60
25718;DHT22;13574;52.040;5.692;2023-06-26T06:32:08;29.20;83.80
25718;DHT22;13574;52.040;5.692;2023-06-26T06:34:34;29.60;83.20
25718;DHT22;13574;52.040;5.692;2023-06-26T06:37:00;29.40;83.40
25718;DHT22;13574;52.040;5.692;2023-06-26T06:42:29;29.60;83.10
25718;DHT22;13574;52.040;5.692;2023-06-26T06:47:33;30.70;81.00
25718;DHT22;13574;52.040;5.692;2023-06-26T06:50:02;32.00;79.10
25718;DHT22;13574;52.040;5.692;2023-06-26T06:52:38;32.60;76.80
25718;DHT22;13574;52.040;5.692;2023-06-26T06:55:04;33.40;75.00
25718;DHT22;13574;52.040;5.692;2023-06-26T06:57:38;33.80;74.40
25718;DHT22;13574;52.040;5.692;2023-06-26T07:00:09;34.50;72.90
25718;DHT22;13574;52.040;5.692;2023-06-26T07:02:39;34.80;71.00
25718;DHT22;13574;52.040;5.692;2023-06-26T07:05:06;35.30;70.60
25718;DHT22;13574;52.040;5.692;2023-06-26T07:07:33;37.00;68.70
25718;DHT22;13574;52.040;5.692;2023-06-26T07:10:07;38.60;66.30
25718;DHT22;13574;52.040;5.692;2023-06-26T07:12:36;39.00;63.60
25718;DHT22;13574;52.040;5.692;2023-06-26T07:15:04;40.60;63.00
25718;DHT22;13574;52.040;5.692;2023-06-26T07:17:31;40.50;60.10
25718;DHT22;13574;52.040;5.692;2023-06-26T07:19:57;39.30;62.80
25718;DHT22;13574;52.040;5.692;2023-06-26T07:22:23;39.30;61.60
25718;DHT22;13574;52.040;5.692;2023-06-26T07:24:51;40.40;61.70
25718;DHT22;13574;52.040;5.692;2023-06-26T07:27:17;41.00;59.80
25718;DHT22;13574;52.040;5.692;2023-06-26T07:29:46;39.70;61.00
25718;DHT22;13574;52.040;5.692;2023-06-26T07:32:12;40.40;61.70
25718;DHT22;13574;52.040;5.692;2023-06-26T07:37:29;39.10;62.40
25718;DHT22;13574;52.040;5.692;2023-06-26T07:40:00;38.10;64.30
25718;DHT22;13574;52.040;5.692;2023-06-26T07:42:26;39.40;64.30
25718;DHT22;13574;52.040;5.692;2023-06-26T07:44:52;41.10;61.00
25718;DHT22;13574;52.040;5.692;2023-06-26T07:47:20;42.50;58.90
25718;DHT22;13574;52.040;5.692;2023-06-26T07:49:51;43.50;57.60
25718;DHT22;13574;52.040;5.692;2023-06-26T08:02:54;44.30;57.00
25718;DHT22;13574;52.040;5.692;2023-06-26T08:05:20;44.50;56.20
25718;DHT22;13574;52.040;5.692;2023-06-26T08:07:46;45.00;55.30
25718;DHT22;13574;52.040;5.692;2023-06-26T08:10:12;42.50;55.90
25718;DHT22;13574;52.040;5.692;2023-06-26T08:12:38;41.40;58.00
25718;DHT22;13574;52.040;5.692;2023-06-26T08:15:06;40.00;59.00
25718;DHT22;13574;52.040;5.692;2023-06-26T08:17:32;39.20;60.80
25718;DHT22;13574;52.040;5.692;2023-06-26T08:20:00;39.50;61.10
25718;DHT22;13574;52.040;5.692;2023-06-26T08:22:26;40.50;62.30
25718;DHT22;13574;52.040;5.692;2023-06-26T08:24:54;41.90;58.60
25718;DHT22;13574;52.040;5.692;2023-06-26T08:27:20;43.30;57.70
25718;DHT22;13574;52.040;5.692;2023-06-26T08:29:46;44.00;56.50
25718;DHT22;13574;52.040;5.692;2023-06-26T08:32:17;43.70;56.40
25718;DHT22;13574;52.040;5.692;2023-06-26T08:34:54;42.90;56.60
25718;DHT22;13574;52.040;5.692;2023-06-26T08:37:20;41.00;56.90
25718;DHT22;13574;52.040;5.692;2023-06-26T08:39:47;40.90;58.60
25718;DHT22;13574;52.040;5.692;2023-06-26T08:42:13;41.30;57.30
25718;DHT22;13574;52.040;5.692;2023-06-26T08:44:44;40.40;57.20
25718;DHT22;13574;52.040;5.692;2023-06-26T08:47:19;39.00;58.20
25718;DHT22;13574;52.040;5.692;2023-06-26T08:50:12;38.50;60.90
25718;DHT22;13574;52.040;5.692;2023-06-26T08:55:23;38.90;60.70
25718;DHT22;13574;52.040;5.692;2023-06-26T09:01:12;39.50;60.00
25718;DHT22;13574;52.040;5.692;2023-06-26T09:07:20;42.70;56.30
25718;DHT22;13574;52.040;5.692;2023-06-26T09:12:50;42.30;55.70
25718;DHT22;13574;52.040;5.692;2023-06-26T09:15:19;42.90;53.80
25718;DHT22;13574;52.040;5.692;2023-06-26T09:17:50;41.80;54.40
25718;DHT22;13574;52.040;5.692;2023-06-26T09:20:24;40.60;54.40
25718;DHT22;13574;52.040;5.692;2023-06-26T09:22:53;40.90;55.90
25718;DHT22;13574;52.040;5.692;2023-06-26T09:25:23;42.40;55.30
25718;DHT22;13574;52.040;5.692;2023-06-26T09:28:08;44.20;53.10
25718;DHT22;13574;52.040;5.692;2023-06-26T09:34:02;45.90;50.40
25718;DHT22;13574;52.040;5.692;2023-06-26T09:36:32;46.60;49.30
25718;DHT22;13574;52.040;5.692;2023-06-26T09:39:02;48.00;49.40
25718;DHT22;13574;52.040;5.692;2023-06-26T09:41:32;47.50;47.40
25718;DHT22;13574;52.040;5.692;2023-06-26T09:44:01;48.60;47.90
25718;DHT22;13574;52.040;5.692;2023-06-26T09:49:35;49.30;47.40
25718;DHT22;13574;52.040;5.692;2023-06-26T09:52:02;48.50;46.70
25718;DHT22;13574;52.040;5.692;2023-06-26T09:54:33;47.50;47.80
25718;DHT22;13574;52.040;5.692;2023-06-26T09:57:10;46.20;48.50
25718;DHT22;13574;52.040;5.692;2023-06-26T09:59:36;46.30;47.50
25718;DHT22;13574;52.040;5.692;2023-06-26T10:02:02;46.40;48.20
25718;DHT22;13574;52.040;5.692;2023-06-26T10:04:28;46.50;48.40
25718;DHT22;13574;52.040;5.692;2023-06-26T10:06:58;44.60;47.70
25718;DHT22;13574;52.040;5.692;2023-06-26T10:09:26;44.50;49.50
25718;DHT22;13574;52.040;5.692;2023-06-26T10:11:58;45.40;48.70
25718;DHT22;13574;52.040;5.692;2023-06-26T10:14:28;46.10;47.90
25718;DHT22;13574;52.040;5.692;2023-06-26T10:16:59;43.50;49.90
25718;DHT22;13574;52.040;5.692;2023-06-26T10:19:27;42.00;52.10
25718;DHT22;13574;52.040;5.692;2023-06-26T10:21:54;42.90;52.50
25718;DHT22;13574;52.040;5.692;2023-06-26T10:24:22;41.90;51.00
25718;DHT22;13574;52.040;5.692;2023-06-26T10:27:01;42.40;51.30
25718;DHT22;13574;52.040;5.692;2023-06-26T10:29:28;41.60;52.00
25718;DHT22;13574;52.040;5.692;2023-06-26T10:31:57;39.40;53.30
25718;DHT22;13574;52.040;5.692;2023-06-26T10:34:24;38.60;53.60
25718;DHT22;13574;52.040;5.692;2023-06-26T10:37:11;39.10;54.60
25718;DHT22;13574;52.040;5.692;2023-06-26T10:39:51;39.90;53.50
25718;DHT22;13574;52.040;5.692;2023-06-26T10:42:35;39.80;54.20
25718;DHT22;13574;52.040;5.692;2023-06-26T10:45:18;39.40;53.80
25718;DHT22;13574;52.040;5.692;2023-06-26T10:47:48;40.10;53.70
25718;DHT22;13574;52.040;5.692;2023-06-26T10:50:38;38.70;54.40
25718;DHT22;13574;52.040;5.692;2023-06-26T10:53:31;37.90;53.80
25718;DHT22;13574;52.040;5.692;2023-06-26T10:56:02;35.80;57.30
25718;DHT22;13574;52.040;5.692;2023-06-26T11:03:47;35.80;58.20
25718;DHT22;13574;52.040;5.692;2023-06-26T11:06:21;35.60;58.80
25718;DHT22;13574;52.040;5.692;2023-06-26T11:12:13;35.10;58.80
25718;DHT22;13574;52.040;5.692;2023-06-26T11:14:39;33.90;59.70
25718;DHT22;13574;52.040;5.692;2023-06-26T11:17:05;33.30;59.80
25718;DHT22;13574;52.040;5.692;2023-06-26T11:20:06;32.70;61.90
25718;DHT22;13574;52.040;5.692;2023-06-26T11:22:35;32.00;63.30
25718;DHT22;13574;52.040;5.692;2023-06-26T11:25:02;32.20;64.70
25718;DHT22;13574;52.040;5.692;2023-06-26T11:30:04;31.20;65.80
25718;DHT22;13574;52.040;5.692;2023-06-26T11:32:30;31.30;66.30
25718;DHT22;13574;52.040;5.692;2023-06-26T11:35:01;30.90;65.00
25718;DHT22;13574;52.040;5.692;2023-06-26T11:40:59;31.50;65.90
25718;DHT22;13574;52.040;5.692;2023-06-26T11:49:37;31.10;65.90
25718;DHT22;13574;52.040;5.692;2023-06-26T11:52:05;30.80;66.70
25718;DHT22;13574;52.040;5.692;2023-06-26T11:54:31;30.20;65.60
25718;DHT22;13574;52.040;5.692;2023-06-26T11:57:01;30.00;67.60
25718;DHT22;13574;52.040;5.692;2023-06-26T11:59:40;30.10;67.40
25718;DHT22;13574;52.040;5.692;2023-06-26T12:02:15;29.70;67.20
25718;DHT22;13574;52.040;5.692;2023-06-26T12:04:42;29.20;67.30
25718;DHT22;13574;52.040;5.692;2023-06-26T12:07:09;29.30;67.60
25718;DHT22;13574;52.040;5.692;2023-06-26T12:09:46;29.30;69.00
25718;DHT22;13574;52.040;5.692;2023-06-26T12:12:35;29.10;67.70
25718;DHT22;13574;52.040;5.692;2023-06-26T12:15:02;29.00;68.30
25718;DHT22;13574;52.040;5.692;2023-06-26T12:17:28;28.90;69.00
25718;DHT22;13574;52.040;5.692;2023-06-26T12:19:53;29.00;68.50
25718;DHT22;13574;52.040;5.692;2023-06-26T12:22:22;28.70;68.20
25718;DHT22;13574;52.040;5.692;2023-06-26T12:24:50;28.80;69.50
25718;DHT22;13574;52.040;5.692;2023-06-26T12:27:18;28.70;69.20
25718;DHT22;13574;52.040;5.692;2023-06-26T12:29:54;28.50;69.90
25718;DHT22;13574;52.040;5.692;2023-06-26T12:32:25;28.50;69.60
25718;DHT22;13574;52.040;5.692;2023-06-26T12:34:53;28.60;69.70
25718;DHT22;13574;52.040;5.692;2023-06-26T12:37:21;28.70;69.20
25718;DHT22;13574;52.040;5.692;2023-06-26T12:39:48;29.00;68.50
25718;DHT22;13574;52.040;5.692;2023-06-26T12:42:34;28.90;69.00
25718;DHT22;13574;52.040;5.692;2023-06-26T12:45:13;29.30;69.50
25718;DHT22;13574;52.040;5.692;2023-06-26T12:47:39;29.10;67.90
25718;DHT22;13574;52.040;5.692;2023-06-26T12:50:07;29.00;67.40
25718;DHT22;13574;52.040;5.692;2023-06-26T12:52:32;28.80;67.70
25718;DHT22;13574;52.040;5.692;2023-06-26T12:54:58;28.50;67.90
25718;DHT22;13574;52.040;5.692;2023-06-26T12:57:24;28.80;69.20
25718;DHT22;13574;52.040;5.692;2023-06-26T12:59:50;28.70;68.00
25718;DHT22;13574;52.040;5.692;2023-06-26T13:02:15;28.80;68.20
25718;DHT22;13574;52.040;5.692;2023-06-26T13:04:41;28.50;66.90
25718;DHT22;13574;52.040;5.692;2023-06-26T13:07:09;28.40;67.40
25718;DHT22;13574;52.040;5.692;2023-06-26T13:09:35;28.40;65.60
25718;DHT22;13574;52.040;5.692;2023-06-26T13:12:02;28.40;66.10
25718;DHT22;13574;52.040;5.692;2023-06-26T13:14:29;28.50;66.60
25718;DHT22;13574;52.040;5.692;2023-06-26T13:16:55;28.30;66.30
25718;DHT22;13574;52.040;5.692;2023-06-26T13:19:21;28.10;67.20
25718;DHT22;13574;52.040;5.692;2023-06-26T13:21:47;27.80;67.80
25718;DHT22;13574;52.040;5.692;2023-06-26T13:24:13;27.70;67.20
25718;DHT22;13574;52.040;5.692;2023-06-26T13:26:39;27.50;68.10
25718;DHT22;13574;52.040;5.692;2023-06-26T13:29:05;27.50;67.90
25718;DHT22;13574;52.040;5.692;2023-06-26T13:31:31;27.30;68.80
25718;DHT22;13574;52.040;5.692;2023-06-26T13:34:01;27.70;68.00
25718;DHT22;13574;52.040;5.692;2023-06-26T13:36:28;27.60;67.90
25718;DHT22;13574;52.040;5.692;2023-06-26T13:38:54;27.80;67.40
25718;DHT22;13574;52.040;5.692;2023-06-26T13:41:23;27.90;66.80
25718;DHT22;13574;52.040;5.692;2023-06-26T13:43:49;27.40;68.00
25718;DHT22;13574;52.040;5.692;2023-06-26T13:46:15;27.40;67.70
25718;DHT22;13574;52.040;5.692;2023-06-26T13:48:41;27.70;67.70
25718;DHT22;13574;52.040;5.692;2023-06-26T13:51:07;27.90;68.00
25718;DHT22;13574;52.040;5.692;2023-06-26T13:53:32;27.60;67.30
25718;DHT22;13574;52.040;5.692;2023-06-26T13:55:58;27.50;68.40
25718;DHT22;13574;52.040;5.692;2023-06-26T13:58:24;27.70;68.20
25718;DHT22;13574;52.040;5.692;2023-06-26T14:00:52;27.70;67.70
25718;DHT22;13574;52.040;5.692;2023-06-26T14:03:19;27.70;67.70
25718;DHT22;13574;52.040;5.692;2023-06-26T14:05:44;27.50;67.60
25718;DHT22;13574;52.040;5.692;2023-06-26T14:08:10;27.50;68.80
25718;DHT22;13574;52.040;5.692;2023-06-26T14:10:36;27.60;68.40
25718;DHT22;13574;52.040;5.692;2023-06-26T14:13:03;27.30;68.70
25718;DHT22;13574;52.040;5.692;2023-06-26T14:15:29;27.30;69.90
25718;DHT22;13574;52.040;5.692;2023-06-26T14:17:55;27.20;68.80
25718;DHT22;13574;52.040;5.692;2023-06-26T14:20:21;27.40;69.10
25718;DHT22;13574;52.040;5.692;2023-06-26T14:22:48;26.90;69.50
25718;DHT22;13574;52.040;5.692;2023-06-26T14:25:14;27.10;70.80
25718;DHT22;13574;52.040;5.692;2023-06-26T14:27:40;26.90;69.80
25718;DHT22;13574;52.040;5.692;2023-06-26T14:30:06;26.80;70.20
25718;DHT22;13574;52.040;5.692;2023-06-26T14:32:35;27.10;69.90
25718;DHT22;13574;52.040;5.692;2023-06-26T14:35:02;27.20;70.80
25718;DHT22;13574;52.040;5.692;2023-06-26T14:37:30;27.50;70.60
25718;DHT22;13574;52.040;5.692;2023-06-26T14:39:56;27.60;69.10
25718;DHT22;13574;52.040;5.692;2023-06-26T14:42:23;27.60;68.50
25718;DHT22;13574;52.040;5.692;2023-06-26T14:44:48;27.20;68.90
25718;DHT22;13574;52.040;5.692;2023-06-26T14:47:16;25.90;72.20
25718;DHT22;13574;52.040;5.692;2023-06-26T14:49:42;26.10;72.90
25718;DHT22;13574;52.040;5.692;2023-06-26T14:52:10;25.70;72.30
25718;DHT22;13574;52.040;5.692;2023-06-26T14:54:36;26.10;73.10
25718;DHT22;13574;52.040;5.692;2023-06-26T14:57:05;26.10;73.60
25718;DHT22;13574;52.040;5.692;2023-06-26T14:59:31;26.40;72.70
25718;DHT22;13574;52.040;5.692;2023-06-26T15:01:56;26.40;72.30
25718;DHT22;13574;52.040;5.692;2023-06-26T15:04:22;26.40;71.90
25718;DHT22;13574;52.040;5.692;2023-06-26T15:06:47;26.30;72.00
25718;DHT22;13574;52.040;5.692;2023-06-26T15:09:13;26.50;72.40
25718;DHT22;13574;52.040;5.692;2023-06-26T15:11:39;26.80;72.30
25718;DHT22;13574;52.040;5.692;2023-06-26T15:14:05;26.30;70.20
25718;DHT22;13574;52.040;5.692;2023-06-26T15:16:30;26.40;71.40
25718;DHT22;13574;52.040;5.692;2023-06-26T15:18:56;26.60;70.30
25718;DHT22;13574;52.040;5.692;2023-06-26T15:21:22;26.80;70.60
25718;DHT22;13574;52.040;5.692;2023-06-26T15:23:47;27.00;70.50
25718;DHT22;13574;52.040;5.692;2023-06-26T15:26:13;26.80;72.40
25718;DHT22;13574;52.040;5.692;2023-06-26T15:28:39;26.60;72.40
25718;DHT22;13574;52.040;5.692;2023-06-26T15:31:05;26.50;71.80
25718;DHT22;13574;52.040;5.692;2023-06-26T15:33:30;26.20;72.50
25718;DHT22;13574;52.040;5.692;2023-06-26T15:35:56;26.30;72.00
25718;DHT22;13574;52.040;5.692;2023-06-26T15:38:22;26.20;71.20
25718;DHT22;13574;52.040;5.692;2023-06-26T15:40:48;26.20;71.70
25718;DHT22;13574;52.040;5.692;2023-06-26T15:43:13;26.20;71.90
25718;DHT22;13574;52.040;5.692;2023-06-26T15:45:39;26.40;71.60
25718;DHT22;13574;52.040;5.692;2023-06-26T15:48:05;26.40;72.10
25718;DHT22;13574;52.040;5.692;2023-06-26T15:50:31;26.40;72.30
25718;DHT22;13574;52.040;5.692;2023-06-26T15:52:56;26.70;72.10
25718;DHT22;13574;52.040;5.692;2023-06-26T15:55:22;26.70;71.20
25718;DHT22;13574;52.040;5.692;2023-06-26T15:57:48;26.80;70.80
25718;DHT22;13574;52.040;5.692;2023-06-26T16:00:14;26.70;70.80
25718;DHT22;13574;52.040;5.692;2023-06-26T16:02:44;26.90;71.50
25718;DHT22;13574;52.040;5.692;2023-06-26T16:05:09;26.80;71.10
25718;DHT22;13574;52.040;5.692;2023-06-26T16:07:35;26.80;71.10
25718;DHT22;13574;52.040;5.692;2023-06-26T16:10:01;26.70;71.80
25718;DHT22;13574;52.040;5.692;2023-06-26T16:12:27;26.80;71.70
25718;DHT22;13574;52.040;5.692;2023-06-26T16:14:52;26.60;71.70
25718;DHT22;13574;52.040;5.692;2023-06-26T16:17:18;26.90;70.80
25718;DHT22;13574;52.040;5.692;2023-06-26T16:19:46;26.80;71.70
25718;DHT22;13574;52.040;5.692;2023-06-26T16:22:12;26.30;71.30
25718;DHT22;13574;52.040;5.692;2023-06-26T16:24:38;26.60;72.10
25718;DHT22;13574;52.040;5.692;2023-06-26T16:27:04;26.70;70.60
25718;DHT22;13574;52.040;5.692;2023-06-26T16:29:31;26.10;71.10
25718;DHT22;13574;52.040;5.692;2023-06-26T16:32:00;26.20;71.40
25718;DHT22;13574;52.040;5.692;2023-06-26T16:34:30;26.30;71.60